Time;durP1;ratioP1;P1;durP2;ratioP2;P2;SDS_P1;SDS_P2;PMS_P1;PMS_P2;Temp;Humidity;BMP_temperature;BMP_pressure;BME280_temperature;BME280_humidity;BME280_pressure;Samples;Min_cycle;Max_cycle;Signal;HPM_P1;HPM_P2
2022/06/04 00:00:43;;;;;;;10.8;9.299999;;;;;;;14.47;97.37012;95366.44;;;;
2022/06/04 00:01:47;;;;;;;10.8;9.299999;;;;;;;14.47;97.37012;95366.44;;;;
2022/06/04 00:02:47;;;;;;;10.8;9.299999;;;;;;;14.47;97.37012;95366.44;;;;
2022/06/04 00:03:49;;;;;;;10.8;9.299999;;;;;;;14.47;97.37012;95366.44;;;;
2022/06/04 00:04:49;;;;;;;10.8;9.299999;;;;;;;14.47;97.37012;95366.44;;;;
2022/06/04 00:05:50;;;;;;;10.8;9.299999;;;;;;;14.47;97.37012;95366.44;;;;
2022/06/04 00:06:53;;;;;;;10.8;9.299999;;;;;;;14.47;97.37012;95366.44;;;;
2022/06/04 00:07:54;;;;;;;10.8;9.299999;;;;;;;14.47;97.37012;95366.44;;;;
2022/06/04 00:08:58;;;;;;;10.8;9.299999;;;;;;;14.47;97.37012;95366.44;;;;
2022/06/04 00:15:44;;;;;;;9.25;8.249999;;;;;;;14.31;97.2168;95363.57;;;;
2022/06/04 00:16:47;;;;;;;9.25;8.249999;;;;;;;14.31;97.2168;95363.57;;;;
2022/06/04 00:17:48;;;;;;;9.25;8.249999;;;;;;;14.31;97.2168;95363.57;;;;
2022/06/04 00:18:51;;;;;;;9.25;8.249999;;;;;;;14.31;97.2168;95363.57;;;;
2022/06/04 00:19:52;;;;;;;9.25;8.249999;;;;;;;14.31;97.2168;95363.57;;;;
2022/06/04 00:20:53;;;;;;;9.25;8.249999;;;;;;;14.31;97.2168;95363.57;;;;
2022/06/04 00:21:54;;;;;;;8.799998;7.95;;;;;;;14.24;97.40723;95366.83;;;;
2022/06/04 00:22:54;;;;;;;8.799998;7.95;;;;;;;14.24;97.40723;95366.83;;;;
2022/06/04 00:23:57;;;;;;;8.799998;7.95;;;;;;;14.24;97.40723;95366.83;;;;
2022/06/04 00:24:58;;;;;;;8.799998;7.95;;;;;;;14.24;97.40723;95366.83;;;;
2022/06/04 00:25:58;;;;;;;8.799998;7.95;;;;;;;14.24;97.40723;95366.83;;;;
2022/06/04 00:27:00;;;;;;;8.799998;7.95;;;;;;;14.24;97.40723;95366.83;;;;
2022/06/04 00:28:01;;;;;;;8.799998;7.95;;;;;;;14.24;97.40723;95366.83;;;;
2022/06/04 00:29:07;;;;;;;8.799998;7.95;;;;;;;14.24;97.40723;95366.83;;;;
2022/06/04 00:30:08;;;;;;;8.799998;7.95;;;;;;;14.24;97.40723;95366.83;;;;
2022/06/04 00:31:10;;;;;;;8.799998;7.95;;;;;;;14.24;97.40723;95366.83;;;;
2022/06/04 00:32:10;;;;;;;9;8.1;;;;;;;14.11;97.41016;95376.37;;;;
2022/06/04 00:33:11;;;;;;;9;8.1;;;;;;;14.11;97.41016;95376.37;;;;
2022/06/04 00:34:12;;;;;;;9;8.1;;;;;;;14.11;97.41016;95376.37;;;;
2022/06/04 00:35:14;;;;;;;9;8.1;;;;;;;14.11;97.41016;95376.37;;;;
2022/06/04 00:36:15;;;;;;;9;8.1;;;;;;;14.11;97.41016;95376.37;;;;
2022/06/04 00:37:16;;;;;;;9;8.1;;;;;;;14.11;97.41016;95376.37;;;;
2022/06/04 00:38:16;;;;;;;9;8.1;;;;;;;14.11;97.41016;95376.37;;;;
2022/06/04 00:39:20;;;;;;;9;8.1;;;;;;;14.11;97.41016;95376.37;;;;
2022/06/04 00:40:20;;;;;;;9;8.1;;;;;;;14.11;97.41016;95376.37;;;;
2022/06/04 00:41:32;;;;;;;9;8.1;;;;;;;14.11;97.41016;95376.37;;;;
2022/06/04 00:42:40;;;;;;;8.9;8.100001;;;;;;;14.05;97.5791;95356.95;;;;
2022/06/04 00:43:40;;;;;;;8.9;8.100001;;;;;;;14.05;97.5791;95356.95;;;;
2022/06/04 00:45:02;;;;;;;8.9;8.100001;;;;;;;14.05;97.5791;95356.95;;;;
2022/06/04 00:50:17;;;;;;;8.9;8.100001;;;;;;;14.05;97.5791;95356.95;;;;
2022/06/04 00:51:21;;;;;;;8.9;8.100001;;;;;;;14.05;97.5791;95356.95;;;;
2022/06/04 00:52:22;;;;;;;8.9;8.100001;;;;;;;14.05;97.5791;95356.95;;;;
2022/06/04 00:53:25;;;;;;;7.900001;7.15;;;;;;;13.92;97.53027;95350.02;;;;
2022/06/04 00:54:25;;;;;;;7.900001;7.15;;;;;;;13.92;97.53027;95350.02;;;;
2022/06/04 00:55:27;;;;;;;7.900001;7.15;;;;;;;13.92;97.53027;95350.02;;;;
2022/06/04 00:56:33;;;;;;;7.900001;7.15;;;;;;;13.92;97.53027;95350.02;;;;
2022/06/04 00:57:43;;;;;;;7.900001;7.15;;;;;;;13.92;97.53027;95350.02;;;;
2022/06/04 00:58:59;;;;;;;7.900001;7.15;;;;;;;13.92;97.53027;95350.02;;;;
2022/06/04 01:00:21;;;;;;;7.900001;7.15;;;;;;;13.92;97.53027;95350.02;;;;
2022/06/04 01:01:27;;;;;;;7.900001;7.15;;;;;;;13.92;97.53027;95350.02;;;;
2022/06/04 01:02:30;;;;;;;7.900001;7.15;;;;;;;13.92;97.53027;95350.02;;;;
2022/06/04 01:03:40;;;;;;;7.900001;7.15;;;;;;;13.92;97.53027;95350.02;;;;
2022/06/04 01:04:50;;;;;;;10.85;7.75;;;;;;;13.86;97.7207;95351.84;;;;
2022/06/04 01:06:02;;;;;;;10.85;7.75;;;;;;;13.86;97.7207;95351.84;;;;
2022/06/04 01:07:19;;;;;;;10.85;7.75;;;;;;;13.86;97.7207;95351.84;;;;
2022/06/04 01:08:34;;;;;;;10.85;7.75;;;;;;;13.86;97.7207;95351.84;;;;
2022/06/04 01:09:51;;;;;;;10.85;7.75;;;;;;;13.86;97.7207;95351.84;;;;
2022/06/04 01:11:05;;;;;;;10.85;7.75;;;;;;;13.86;97.7207;95351.84;;;;
2022/06/04 01:12:13;;;;;;;10.85;7.75;;;;;;;13.86;97.7207;95351.84;;;;
2022/06/04 01:13:26;;;;;;;10.85;7.75;;;;;;;13.86;97.7207;95351.84;;;;
2022/06/04 01:14:40;;;;;;;11.65;8.599999;;;;;;;13.72;97.60352;95362.41;;;;
2022/06/04 01:15:57;;;;;;;11.65;8.599999;;;;;;;13.72;97.60352;95362.41;;;;
2022/06/04 01:17:08;;;;;;;11.65;8.599999;;;;;;;13.72;97.60352;95362.41;;;;
2022/06/04 01:18:17;;;;;;;11.65;8.599999;;;;;;;13.72;97.60352;95362.41;;;;
2022/06/04 01:19:32;;;;;;;11.65;8.599999;;;;;;;13.72;97.60352;95362.41;;;;
2022/06/04 01:20:53;;;;;;;11.65;8.599999;;;;;;;13.72;97.60352;95362.41;;;;
2022/06/04 01:22:01;;;;;;;11.65;8.599999;;;;;;;13.72;97.60352;95362.41;;;;
2022/06/04 01:23:24;;;;;;;11.65;8.599999;;;;;;;13.72;97.60352;95362.41;;;;
2022/06/04 01:25:46;;;;;;;8.25;7.4;;;;;;;13.65;97.79297;95361.19;;;;
2022/06/04 01:27:04;;;;;;;8.25;7.4;;;;;;;13.65;97.79297;95361.19;;;;
2022/06/04 01:28:14;;;;;;;8.25;7.4;;;;;;;13.65;97.79297;95361.19;;;;
2022/06/04 01:29:16;;;;;;;8.25;7.4;;;;;;;13.65;97.79297;95361.19;;;;
2022/06/04 01:30:20;;;;;;;8.25;7.4;;;;;;;13.65;97.79297;95361.19;;;;
2022/06/04 01:31:24;;;;;;;8.25;7.4;;;;;;;13.65;97.79297;95361.19;;;;
2022/06/04 01:32:35;;;;;;;8.25;7.4;;;;;;;13.65;97.79297;95361.19;;;;
2022/06/04 01:33:40;;;;;;;8.25;7.4;;;;;;;13.65;97.79297;95361.19;;;;
2022/06/04 01:34:45;;;;;;;8.25;7.4;;;;;;;13.65;97.79297;95361.19;;;;
2022/06/04 01:35:54;;;;;;;9.250001;7.45;;;;;;;13.54;97.74707;95361.16;;;;
2022/06/04 01:36:58;;;;;;;9.250001;7.45;;;;;;;13.54;97.74707;95361.16;;;;
2022/06/04 01:38:04;;;;;;;9.250001;7.45;;;;;;;13.54;97.74707;95361.16;;;;
2022/06/04 01:39:10;;;;;;;9.250001;7.45;;;;;;;13.54;97.74707;95361.16;;;;
2022/06/04 01:41:22;;;;;;;9.250001;7.45;;;;;;;13.54;97.74707;95361.16;;;;
2022/06/04 01:42:29;;;;;;;9.250001;7.45;;;;;;;13.54;97.74707;95361.16;;;;
2022/06/04 01:43:33;;;;;;;9.250001;7.45;;;;;;;13.54;97.74707;95361.16;;;;
2022/06/04 01:44:40;;;;;;;9.250001;7.45;;;;;;;13.54;97.74707;95361.16;;;;
2022/06/04 01:45:41;;;;;;;9.250001;7.45;;;;;;;13.54;97.74707;95361.16;;;;
2022/06/04 01:46:46;;;;;;;7.850001;7.150001;;;;;;;13.49;97.91895;95347.75;;;;
2022/06/04 01:47:49;;;;;;;7.850001;7.150001;;;;;;;13.49;97.91895;95347.75;;;;
2022/06/04 01:48:53;;;;;;;7.850001;7.150001;;;;;;;13.49;97.91895;95347.75;;;;
2022/06/04 01:49:58;;;;;;;7.850001;7.150001;;;;;;;13.49;97.91895;95347.75;;;;
2022/06/04 01:51:03;;;;;;;7.850001;7.150001;;;;;;;13.49;97.91895;95347.75;;;;
2022/06/04 01:52:05;;;;;;;7.850001;7.150001;;;;;;;13.49;97.91895;95347.75;;;;
2022/06/04 01:53:18;;;;;;;7.850001;7.150001;;;;;;;13.49;97.91895;95347.75;;;;
2022/06/04 01:54:24;;;;;;;7.850001;7.150001;;;;;;;13.49;97.91895;95347.75;;;;
2022/06/04 01:55:30;;;;;;;7.850001;7.150001;;;;;;;13.49;97.91895;95347.75;;;;
2022/06/04 01:56:37;;;;;;;7.850001;7.150001;;;;;;;13.49;97.91895;95347.75;;;;
2022/06/04 01:57:44;;;;;;;8.700001;7.000001;;;;;;;13.38;97.90527;95366.72;;;;
2022/06/04 01:58:49;;;;;;;8.700001;7.000001;;;;;;;13.38;97.90527;95366.72;;;;
2022/06/04 01:59:53;;;;;;;8.700001;7.000001;;;;;;;13.38;97.90527;95366.72;;;;
2022/06/04 02:01:00;;;;;;;8.700001;7.000001;;;;;;;13.38;97.90527;95366.72;;;;
2022/06/04 02:02:10;;;;;;;8.700001;7.000001;;;;;;;13.38;97.90527;95366.72;;;;
2022/06/04 02:03:17;;;;;;;8.700001;7.000001;;;;;;;13.38;97.90527;95366.72;;;;
2022/06/04 02:04:22;;;;;;;8.700001;7.000001;;;;;;;13.38;97.90527;95366.72;;;;
2022/06/04 02:05:26;;;;;;;8.700001;7.000001;;;;;;;13.38;97.90527;95366.72;;;;
2022/06/04 02:06:33;;;;;;;8.700001;7.000001;;;;;;;13.38;97.90527;95366.72;;;;
2022/06/04 02:07:38;;;;;;;8.700001;7.000001;;;;;;;13.38;97.90527;95366.72;;;;
2022/06/04 02:08:45;;;;;;;10.35;7.1;;;;;;;13.35;98.09277;95371.06;;;;
2022/06/04 02:09:49;;;;;;;10.35;7.1;;;;;;;13.35;98.09277;95371.06;;;;
2022/06/04 02:10:54;;;;;;;10.35;7.1;;;;;;;13.35;98.09277;95371.06;;;;
2022/06/04 02:12:01;;;;;;;10.35;7.1;;;;;;;13.35;98.09277;95371.06;;;;
2022/06/04 02:13:04;;;;;;;10.35;7.1;;;;;;;13.35;98.09277;95371.06;;;;
2022/06/04 02:14:09;;;;;;;10.35;7.1;;;;;;;13.35;98.09277;95371.06;;;;
2022/06/04 02:15:11;;;;;;;10.35;7.1;;;;;;;13.35;98.09277;95371.06;;;;
2022/06/04 02:16:15;;;;;;;10.35;7.1;;;;;;;13.35;98.09277;95371.06;;;;
2022/06/04 02:17:22;;;;;;;10.35;7.1;;;;;;;13.35;98.09277;95371.06;;;;
2022/06/04 02:18:25;;;;;;;10.35;7.1;;;;;;;13.35;98.09277;95371.06;;;;
2022/06/04 02:19:26;;;;;;;7.4;6.400001;;;;;;;13.24;97.95996;95361.74;;;;
2022/06/04 02:20:27;;;;;;;7.4;6.400001;;;;;;;13.24;97.95996;95361.74;;;;
2022/06/04 02:21:27;;;;;;;7.4;6.400001;;;;;;;13.24;97.95996;95361.74;;;;
2022/06/04 02:22:31;;;;;;;7.4;6.400001;;;;;;;13.24;97.95996;95361.74;;;;
2022/06/04 02:23:33;;;;;;;7.4;6.400001;;;;;;;13.24;97.95996;95361.74;;;;
2022/06/04 02:24:35;;;;;;;7.4;6.400001;;;;;;;13.24;97.95996;95361.74;;;;
2022/06/04 02:25:35;;;;;;;7.4;6.400001;;;;;;;13.24;97.95996;95361.74;;;;
2022/06/04 02:26:36;;;;;;;7.4;6.400001;;;;;;;13.24;97.95996;95361.74;;;;
2022/06/04 02:27:38;;;;;;;7.4;6.400001;;;;;;;13.24;97.95996;95361.74;;;;
2022/06/04 02:28:40;;;;;;;7.4;6.400001;;;;;;;13.24;97.95996;95361.74;;;;
2022/06/04 02:29:42;;;;;;;7.799999;7;;;;;;;13.16;98.05957;95355.41;;;;
2022/06/04 02:30:42;;;;;;;7.799999;7;;;;;;;13.16;98.05957;95355.41;;;;
2022/06/04 02:31:52;;;;;;;7.799999;7;;;;;;;13.16;98.05957;95355.41;;;;
2022/06/04 02:33:01;;;;;;;7.799999;7;;;;;;;13.16;98.05957;95355.41;;;;
2022/06/04 02:34:08;;;;;;;7.799999;7;;;;;;;13.16;98.05957;95355.41;;;;
2022/06/04 02:35:18;;;;;;;7.799999;7;;;;;;;13.16;98.05957;95355.41;;;;
2022/06/04 02:36:24;;;;;;;7.799999;7;;;;;;;13.16;98.05957;95355.41;;;;
2022/06/04 02:37:33;;;;;;;7.799999;7;;;;;;;13.16;98.05957;95355.41;;;;
2022/06/04 02:38:45;;;;;;;7.799999;7;;;;;;;13.16;98.05957;95355.41;;;;
2022/06/04 02:39:52;;;;;;;9.2;6.899999;;;;;;;13.04;98;95360.27;;;;
2022/06/04 02:40:58;;;;;;;9.2;6.899999;;;;;;;13.04;98;95360.27;;;;
2022/06/04 02:42:05;;;;;;;9.2;6.899999;;;;;;;13.04;98;95360.27;;;;
2022/06/04 02:43:13;;;;;;;9.2;6.899999;;;;;;;13.04;98;95360.27;;;;
2022/06/04 02:44:18;;;;;;;9.2;6.899999;;;;;;;13.04;98;95360.27;;;;
2022/06/04 02:45:27;;;;;;;9.2;6.899999;;;;;;;13.04;98;95360.27;;;;
2022/06/04 02:46:32;;;;;;;9.2;6.899999;;;;;;;13.04;98;95360.27;;;;
2022/06/04 02:47:37;;;;;;;9.2;6.899999;;;;;;;13.04;98;95360.27;;;;
2022/06/04 02:48:43;;;;;;;9.2;6.899999;;;;;;;13.04;98;95360.27;;;;
2022/06/04 02:49:49;;;;;;;9.2;6.899999;;;;;;;13.04;98;95360.27;;;;
2022/06/04 02:50:55;;;;;;;8.600001;6.899999;;;;;;;12.98;98.14844;95359.41;;;;
2022/06/04 02:52:00;;;;;;;8.600001;6.899999;;;;;;;12.98;98.14844;95359.41;;;;
2022/06/04 02:53:00;;;;;;;8.600001;6.899999;;;;;;;12.98;98.14844;95359.41;;;;
2022/06/04 02:54:03;;;;;;;8.600001;6.899999;;;;;;;12.98;98.14844;95359.41;;;;
2022/06/04 02:55:08;;;;;;;8.600001;6.899999;;;;;;;12.98;98.14844;95359.41;;;;
2022/06/04 02:56:12;;;;;;;8.600001;6.899999;;;;;;;12.98;98.14844;95359.41;;;;
2022/06/04 02:57:18;;;;;;;8.600001;6.899999;;;;;;;12.98;98.14844;95359.41;;;;
2022/06/04 02:58:19;;;;;;;8.600001;6.899999;;;;;;;12.98;98.14844;95359.41;;;;
2022/06/04 02:59:21;;;;;;;8.600001;6.899999;;;;;;;12.98;98.14844;95359.41;;;;
2022/06/04 03:00:25;;;;;;;8.600001;6.899999;;;;;;;12.98;98.14844;95359.41;;;;
2022/06/04 03:01:28;;;;;;;9.35;7.399999;;;;;;;12.85;97.99121;95350.7;;;;
2022/06/04 03:02:30;;;;;;;9.35;7.399999;;;;;;;12.85;97.99121;95350.7;;;;
2022/06/04 03:03:34;;;;;;;9.35;7.399999;;;;;;;12.85;97.99121;95350.7;;;;
2022/06/04 03:04:34;;;;;;;9.35;7.399999;;;;;;;12.85;97.99121;95350.7;;;;
2022/06/04 03:05:44;;;;;;;9.35;7.399999;;;;;;;12.85;97.99121;95350.7;;;;
2022/06/04 03:06:55;;;;;;;9.35;7.399999;;;;;;;12.85;97.99121;95350.7;;;;
2022/06/04 03:08:04;;;;;;;9.35;7.399999;;;;;;;12.85;97.99121;95350.7;;;;
2022/06/04 03:09:06;;;;;;;9.35;7.399999;;;;;;;12.85;97.99121;95350.7;;;;
2022/06/04 03:10:11;;;;;;;9.35;7.399999;;;;;;;12.85;97.99121;95350.7;;;;
2022/06/04 03:11:15;;;;;;;9.35;7.399999;;;;;;;12.85;97.99121;95350.7;;;;
2022/06/04 03:12:16;;;;;;;7.349999;6.600001;;;;;;;12.8;98.17383;95373.11;;;;
2022/06/04 03:13:16;;;;;;;7.349999;6.600001;;;;;;;12.8;98.17383;95373.11;;;;
2022/06/04 03:14:17;;;;;;;7.349999;6.600001;;;;;;;12.8;98.17383;95373.11;;;;
2022/06/04 03:15:18;;;;;;;7.349999;6.600001;;;;;;;12.8;98.17383;95373.11;;;;
2022/06/04 03:16:19;;;;;;;7.349999;6.600001;;;;;;;12.8;98.17383;95373.11;;;;
2022/06/04 03:17:20;;;;;;;7.349999;6.600001;;;;;;;12.8;98.17383;95373.11;;;;
2022/06/04 03:18:20;;;;;;;7.349999;6.600001;;;;;;;12.8;98.17383;95373.11;;;;
2022/06/04 03:19:21;;;;;;;7.349999;6.600001;;;;;;;12.8;98.17383;95373.11;;;;
2022/06/04 03:20:22;;;;;;;7.349999;6.600001;;;;;;;12.8;98.17383;95373.11;;;;
2022/06/04 03:21:28;;;;;;;7.349999;6.600001;;;;;;;12.8;98.17383;95373.11;;;;
2022/06/04 03:22:28;;;;;;;7.349999;6.600001;;;;;;;12.8;98.17383;95373.11;;;;
2022/06/04 03:23:29;;;;;;;8.150002;7.299999;;;;;;;12.68;98.10547;95387.62;;;;
2022/06/04 03:24:29;;;;;;;8.150002;7.299999;;;;;;;12.68;98.10547;95387.62;;;;
2022/06/04 03:25:30;;;;;;;8.150002;7.299999;;;;;;;12.68;98.10547;95387.62;;;;
2022/06/04 03:26:31;;;;;;;8.150002;7.299999;;;;;;;12.68;98.10547;95387.62;;;;
2022/06/04 03:27:32;;;;;;;8.150002;7.299999;;;;;;;12.68;98.10547;95387.62;;;;
2022/06/04 03:28:33;;;;;;;8.150002;7.299999;;;;;;;12.68;98.10547;95387.62;;;;
2022/06/04 03:29:33;;;;;;;8.150002;7.299999;;;;;;;12.68;98.10547;95387.62;;;;
2022/06/04 03:30:34;;;;;;;8.150002;7.299999;;;;;;;12.68;98.10547;95387.62;;;;
2022/06/04 03:31:36;;;;;;;8.150002;7.299999;;;;;;;12.68;98.10547;95387.62;;;;
2022/06/04 03:32:36;;;;;;;8.150002;7.299999;;;;;;;12.68;98.10547;95387.62;;;;
2022/06/04 03:33:37;;;;;;;8.449999;7.55;;;;;;;12.68;98.4043;95388.13;;;;
2022/06/04 03:34:38;;;;;;;8.449999;7.55;;;;;;;12.68;98.4043;95388.13;;;;
2022/06/04 03:35:38;;;;;;;8.449999;7.55;;;;;;;12.68;98.4043;95388.13;;;;
2022/06/04 03:36:39;;;;;;;8.449999;7.55;;;;;;;12.68;98.4043;95388.13;;;;
2022/06/04 03:37:40;;;;;;;8.449999;7.55;;;;;;;12.68;98.4043;95388.13;;;;
2022/06/04 03:38:41;;;;;;;8.449999;7.55;;;;;;;12.68;98.4043;95388.13;;;;
2022/06/04 03:39:41;;;;;;;8.449999;7.55;;;;;;;12.68;98.4043;95388.13;;;;
2022/06/04 03:40:42;;;;;;;8.449999;7.55;;;;;;;12.68;98.4043;95388.13;;;;
2022/06/04 03:41:43;;;;;;;8.449999;7.55;;;;;;;12.68;98.4043;95388.13;;;;
2022/06/04 03:42:43;;;;;;;8.449999;7.55;;;;;;;12.68;98.4043;95388.13;;;;
2022/06/04 03:43:46;;;;;;;8.449999;7.55;;;;;;;12.68;98.4043;95388.13;;;;
2022/06/04 03:44:47;;;;;;;12.2;8.95;;;;;;;12.68;98.58887;95383.65;;;;
2022/06/04 03:45:48;;;;;;;12.2;8.95;;;;;;;12.68;98.58887;95383.65;;;;
2022/06/04 03:46:48;;;;;;;12.2;8.95;;;;;;;12.68;98.58887;95383.65;;;;
2022/06/04 03:47:49;;;;;;;12.2;8.95;;;;;;;12.68;98.58887;95383.65;;;;
2022/06/04 03:48:49;;;;;;;12.2;8.95;;;;;;;12.68;98.58887;95383.65;;;;
2022/06/04 03:49:50;;;;;;;12.2;8.95;;;;;;;12.68;98.58887;95383.65;;;;
2022/06/04 03:50:50;;;;;;;12.2;8.95;;;;;;;12.68;98.58887;95383.65;;;;
2022/06/04 03:51:51;;;;;;;12.2;8.95;;;;;;;12.68;98.58887;95383.65;;;;
2022/06/04 03:52:52;;;;;;;12.2;8.95;;;;;;;12.68;98.58887;95383.65;;;;
2022/06/04 03:53:53;;;;;;;12.2;8.95;;;;;;;12.68;98.58887;95383.65;;;;
2022/06/04 03:54:54;;;;;;;11.15;9.399999;;;;;;;12.82;99.09277;95379.8;;;;
2022/06/04 03:55:55;;;;;;;11.15;9.399999;;;;;;;12.82;99.09277;95379.8;;;;
2022/06/04 03:57:37;;;;;;;11.15;9.399999;;;;;;;12.82;99.09277;95379.8;;;;
2022/06/04 03:58:41;;;;;;;11.15;9.399999;;;;;;;12.82;99.09277;95379.8;;;;
2022/06/04 03:59:42;;;;;;;11.15;9.399999;;;;;;;12.82;99.09277;95379.8;;;;
2022/06/04 04:00:45;;;;;;;11.15;9.399999;;;;;;;12.82;99.09277;95379.8;;;;
2022/06/04 04:01:45;;;;;;;11.15;9.399999;;;;;;;12.82;99.09277;95379.8;;;;
2022/06/04 04:02:52;;;;;;;11.15;9.399999;;;;;;;12.82;99.09277;95379.8;;;;
2022/06/04 04:03:54;;;;;;;11.15;9.399999;;;;;;;12.82;99.09277;95379.8;;;;
2022/06/04 04:04:57;;;;;;;11.15;9.399999;;;;;;;12.82;99.09277;95379.8;;;;
2022/06/04 04:05:57;;;;;;;13.25;10.65;;;;;;;12.94;99.25781;95394.04;;;;
2022/06/04 04:06:58;;;;;;;13.25;10.65;;;;;;;12.94;99.25781;95394.04;;;;
2022/06/04 04:07:58;;;;;;;13.25;10.65;;;;;;;12.94;99.25781;95394.04;;;;
2022/06/04 04:09:01;;;;;;;13.25;10.65;;;;;;;12.94;99.25781;95394.04;;;;
2022/06/04 04:10:02;;;;;;;13.25;10.65;;;;;;;12.94;99.25781;95394.04;;;;
2022/06/04 04:11:06;;;;;;;13.25;10.65;;;;;;;12.94;99.25781;95394.04;;;;
2022/06/04 04:12:10;;;;;;;13.25;10.65;;;;;;;12.94;99.25781;95394.04;;;;
2022/06/04 04:13:11;;;;;;;13.25;10.65;;;;;;;12.94;99.25781;95394.04;;;;
2022/06/04 04:14:13;;;;;;;13.25;10.65;;;;;;;12.94;99.25781;95394.04;;;;
2022/06/04 04:15:13;;;;;;;13.25;10.65;;;;;;;12.94;99.25781;95394.04;;;;
2022/06/04 04:16:14;;;;;;;10.5;9.4;;;;;;;13.12;99.5127;95415.69;;;;
2022/06/04 04:17:18;;;;;;;10.5;9.4;;;;;;;13.12;99.5127;95415.69;;;;
2022/06/04 04:18:18;;;;;;;10.5;9.4;;;;;;;13.12;99.5127;95415.69;;;;
2022/06/04 04:19:19;;;;;;;10.5;9.4;;;;;;;13.12;99.5127;95415.69;;;;
2022/06/04 04:20:19;;;;;;;10.5;9.4;;;;;;;13.12;99.5127;95415.69;;;;
2022/06/04 04:21:22;;;;;;;10.5;9.4;;;;;;;13.12;99.5127;95415.69;;;;
2022/06/04 04:22:23;;;;;;;10.5;9.4;;;;;;;13.12;99.5127;95415.69;;;;
2022/06/04 04:23:23;;;;;;;10.5;9.4;;;;;;;13.12;99.5127;95415.69;;;;
2022/06/04 04:24:24;;;;;;;10.5;9.4;;;;;;;13.12;99.5127;95415.69;;;;
2022/06/04 04:25:25;;;;;;;10.5;9.4;;;;;;;13.12;99.5127;95415.69;;;;
2022/06/04 04:26:27;;;;;;;10.5;9.4;;;;;;;13.12;99.5127;95415.69;;;;
2022/06/04 04:27:28;;;;;;;10;8.65;;;;;;;13.22;99.42578;95409.33;;;;
2022/06/04 04:28:28;;;;;;;10;8.65;;;;;;;13.22;99.42578;95409.33;;;;
2022/06/04 04:29:29;;;;;;;10;8.65;;;;;;;13.22;99.42578;95409.33;;;;
2022/06/04 04:30:29;;;;;;;10;8.65;;;;;;;13.22;99.42578;95409.33;;;;
2022/06/04 04:31:33;;;;;;;10;8.65;;;;;;;13.22;99.42578;95409.33;;;;
2022/06/04 04:32:35;;;;;;;10;8.65;;;;;;;13.22;99.42578;95409.33;;;;
2022/06/04 04:33:36;;;;;;;10;8.65;;;;;;;13.22;99.42578;95409.33;;;;
2022/06/04 04:34:37;;;;;;;10;8.65;;;;;;;13.22;99.42578;95409.33;;;;
2022/06/04 04:35:37;;;;;;;10;8.65;;;;;;;13.22;99.42578;95409.33;;;;
2022/06/04 04:36:38;;;;;;;10;8.65;;;;;;;13.22;99.42578;95409.33;;;;
2022/06/04 04:37:38;;;;;;;8.999998;8.000002;;;;;;;13.37;99.53711;95390.2;;;;
2022/06/04 04:38:39;;;;;;;8.999998;8.000002;;;;;;;13.37;99.53711;95390.2;;;;
2022/06/04 04:39:39;;;;;;;8.999998;8.000002;;;;;;;13.37;99.53711;95390.2;;;;
2022/06/04 04:40:40;;;;;;;8.999998;8.000002;;;;;;;13.37;99.53711;95390.2;;;;
2022/06/04 04:41:42;;;;;;;8.999998;8.000002;;;;;;;13.37;99.53711;95390.2;;;;
2022/06/04 04:42:42;;;;;;;8.999998;8.000002;;;;;;;13.37;99.53711;95390.2;;;;
2022/06/04 04:43:44;;;;;;;8.999998;8.000002;;;;;;;13.37;99.53711;95390.2;;;;
2022/06/04 04:44:44;;;;;;;8.999998;8.000002;;;;;;;13.37;99.53711;95390.2;;;;
2022/06/04 04:45:45;;;;;;;8.999998;8.000002;;;;;;;13.37;99.53711;95390.2;;;;
2022/06/04 04:46:45;;;;;;;8.999998;8.000002;;;;;;;13.37;99.53711;95390.2;;;;
2022/06/04 04:47:49;;;;;;;8.999998;8.000002;;;;;;;13.37;99.53711;95390.2;;;;
2022/06/04 04:48:51;;;;;;;11.3;10.1;;;;;;;13.56;99.55762;95379.94;;;;
2022/06/04 04:49:52;;;;;;;11.3;10.1;;;;;;;13.56;99.55762;95379.94;;;;
2022/06/04 04:50:52;;;;;;;11.3;10.1;;;;;;;13.56;99.55762;95379.94;;;;
2022/06/04 04:51:52;;;;;;;11.3;10.1;;;;;;;13.56;99.55762;95379.94;;;;
2022/06/04 04:52:53;;;;;;;11.3;10.1;;;;;;;13.56;99.55762;95379.94;;;;
2022/06/04 04:53:55;;;;;;;11.3;10.1;;;;;;;13.56;99.55762;95379.94;;;;
2022/06/04 04:54:57;;;;;;;11.3;10.1;;;;;;;13.56;99.55762;95379.94;;;;
2022/06/04 04:55:57;;;;;;;11.3;10.1;;;;;;;13.56;99.55762;95379.94;;;;
2022/06/04 04:56:57;;;;;;;11.3;10.1;;;;;;;13.56;99.55762;95379.94;;;;
2022/06/04 04:57:58;;;;;;;11.3;10.1;;;;;;;13.56;99.55762;95379.94;;;;
2022/06/04 04:58:59;;;;;;;13.35;12.05;;;;;;;13.9;99.90527;95389.71;;;;
2022/06/04 04:59:59;;;;;;;13.35;12.05;;;;;;;13.9;99.90527;95389.71;;;;
2022/06/04 05:01:00;;;;;;;13.35;12.05;;;;;;;13.9;99.90527;95389.71;;;;
2022/06/04 05:02:00;;;;;;;13.35;12.05;;;;;;;13.9;99.90527;95389.71;;;;
2022/06/04 05:03:01;;;;;;;13.35;12.05;;;;;;;13.9;99.90527;95389.71;;;;
2022/06/04 05:04:02;;;;;;;13.35;12.05;;;;;;;13.9;99.90527;95389.71;;;;
2022/06/04 05:05:03;;;;;;;13.35;12.05;;;;;;;13.9;99.90527;95389.71;;;;
2022/06/04 05:06:05;;;;;;;13.35;12.05;;;;;;;13.9;99.90527;95389.71;;;;
2022/06/04 05:07:05;;;;;;;13.35;12.05;;;;;;;13.9;99.90527;95389.71;;;;
2022/06/04 05:08:06;;;;;;;13.35;12.05;;;;;;;13.9;99.90527;95389.71;;;;
2022/06/04 05:09:08;;;;;;;13.35;12.05;;;;;;;13.9;99.90527;95389.71;;;;
2022/06/04 05:10:09;;;;;;;11.75;10.55;;;;;;;14.23;99.80664;95393.14;;;;
2022/06/04 05:11:12;;;;;;;11.75;10.55;;;;;;;14.23;99.80664;95393.14;;;;
2022/06/04 05:12:15;;;;;;;11.75;10.55;;;;;;;14.23;99.80664;95393.14;;;;
2022/06/04 05:13:15;;;;;;;11.75;10.55;;;;;;;14.23;99.80664;95393.14;;;;
2022/06/04 05:14:16;;;;;;;11.75;10.55;;;;;;;14.23;99.80664;95393.14;;;;
2022/06/04 05:15:16;;;;;;;11.75;10.55;;;;;;;14.23;99.80664;95393.14;;;;
2022/06/04 05:16:17;;;;;;;11.75;10.55;;;;;;;14.23;99.80664;95393.14;;;;
2022/06/04 05:17:18;;;;;;;11.75;10.55;;;;;;;14.23;99.80664;95393.14;;;;
2022/06/04 05:18:19;;;;;;;11.75;10.55;;;;;;;14.23;99.80664;95393.14;;;;
2022/06/04 05:19:19;;;;;;;11.75;10.55;;;;;;;14.23;99.80664;95393.14;;;;
2022/06/04 05:20:19;;;;;;;12;10.8;;;;;;;14.68;99.88672;95413.72;;;;
2022/06/04 05:21:20;;;;;;;12;10.8;;;;;;;14.68;99.88672;95413.72;;;;
2022/06/04 05:22:23;;;;;;;12;10.8;;;;;;;14.68;99.88672;95413.72;;;;
2022/06/04 05:23:23;;;;;;;12;10.8;;;;;;;14.68;99.88672;95413.72;;;;
2022/06/04 05:24:24;;;;;;;12;10.8;;;;;;;14.68;99.88672;95413.72;;;;
2022/06/04 05:25:28;;;;;;;12;10.8;;;;;;;14.68;99.88672;95413.72;;;;
2022/06/04 05:26:29;;;;;;;12;10.8;;;;;;;14.68;99.88672;95413.72;;;;
2022/06/04 05:27:29;;;;;;;12;10.8;;;;;;;14.68;99.88672;95413.72;;;;
2022/06/04 05:28:30;;;;;;;12;10.8;;;;;;;14.68;99.88672;95413.72;;;;
2022/06/04 05:29:31;;;;;;;12;10.8;;;;;;;14.68;99.88672;95413.72;;;;
2022/06/04 05:30:32;;;;;;;12;10.8;;;;;;;14.68;99.88672;95413.72;;;;
2022/06/04 05:31:33;;;;;;;12.45;10.7;;;;;;;15.12;99.76855;95407.31;;;;
2022/06/04 05:32:33;;;;;;;12.45;10.7;;;;;;;15.12;99.76855;95407.31;;;;
2022/06/04 05:33:34;;;;;;;12.45;10.7;;;;;;;15.12;99.76855;95407.31;;;;
2022/06/04 05:34:34;;;;;;;12.45;10.7;;;;;;;15.12;99.76855;95407.31;;;;
2022/06/04 05:35:35;;;;;;;12.45;10.7;;;;;;;15.12;99.76855;95407.31;;;;
2022/06/04 05:36:37;;;;;;;12.45;10.7;;;;;;;15.12;99.76855;95407.31;;;;
2022/06/04 05:37:38;;;;;;;12.45;10.7;;;;;;;15.12;99.76855;95407.31;;;;
2022/06/04 05:38:38;;;;;;;12.45;10.7;;;;;;;15.12;99.76855;95407.31;;;;
2022/06/04 05:39:40;;;;;;;12.45;10.7;;;;;;;15.12;99.76855;95407.31;;;;
2022/06/04 05:40:40;;;;;;;12.45;10.7;;;;;;;15.12;99.76855;95407.31;;;;
2022/06/04 05:41:41;;;;;;;12.85;10.8;;;;;;;15.65;99.86719;95398.07;;;;
2022/06/04 05:42:42;;;;;;;12.85;10.8;;;;;;;15.65;99.86719;95398.07;;;;
2022/06/04 05:43:42;;;;;;;12.85;10.8;;;;;;;15.65;99.86719;95398.07;;;;
2022/06/04 05:44:43;;;;;;;12.85;10.8;;;;;;;15.65;99.86719;95398.07;;;;
2022/06/04 05:45:43;;;;;;;12.85;10.8;;;;;;;15.65;99.86719;95398.07;;;;
2022/06/04 05:46:44;;;;;;;12.85;10.8;;;;;;;15.65;99.86719;95398.07;;;;
2022/06/04 05:47:45;;;;;;;12.85;10.8;;;;;;;15.65;99.86719;95398.07;;;;
2022/06/04 05:48:45;;;;;;;12.85;10.8;;;;;;;15.65;99.86719;95398.07;;;;
2022/06/04 05:49:47;;;;;;;12.85;10.8;;;;;;;15.65;99.86719;95398.07;;;;
2022/06/04 05:50:48;;;;;;;12.85;10.8;;;;;;;15.65;99.86719;95398.07;;;;
2022/06/04 05:51:49;;;;;;;12.85;10.8;;;;;;;15.65;99.86719;95398.07;;;;
2022/06/04 05:52:50;;;;;;;8.85;8.050001;;;;;;;16.17;99.7666;95401.21;;;;
2022/06/04 05:53:50;;;;;;;8.85;8.050001;;;;;;;16.17;99.7666;95401.21;;;;
2022/06/04 05:54:52;;;;;;;8.85;8.050001;;;;;;;16.17;99.7666;95401.21;;;;
2022/06/04 05:55:52;;;;;;;8.85;8.050001;;;;;;;16.17;99.7666;95401.21;;;;
2022/06/04 05:56:53;;;;;;;8.85;8.050001;;;;;;;16.17;99.7666;95401.21;;;;
2022/06/04 05:57:55;;;;;;;8.85;8.050001;;;;;;;16.17;99.7666;95401.21;;;;
2022/06/04 05:58:56;;;;;;;8.85;8.050001;;;;;;;16.17;99.7666;95401.21;;;;